LFRK

Caen-Carpiquet Airport

Airport
ICAO code
LFRK
IATA Code
CFR
Summary
ICAO Region
EUR
ICAO Territory
Location

, Basse-Normandie

Serving
Caen
Elevation
256 ft
Coordinates
49° 10' 24" N , 0° 27' 0" W
Metar
Observation
LFRK 092000Z AUTO 27009KT CAVOK 00/M00 Q1008 TEMPO 0500 FZFG BKN005 SCT020TCU
Station
Caen
Date/Time
2022-12-09 20:00:00
Wind direction
270°
Wind speed
09 kts
Lowest cloud amount
broken clouds
Temperature
0°C
Dew point
-0°C
Humidity
100%
QNH
1008 hPa
Weather condition
n/a

Runways

Designator Length Width Surface Rops
6/24 1180 30 ASP No/No
13/31 1900 45 ASP No/No

Airport map

Aerial View

SKYbrary Partners:

Safety knowledge contributed by: